Pattonville Airfield

EDTQ · 巴登-符腾堡, 德国

罗盘
风向 的 风向 050° Pattonville Airport 10/28
风: 11 kt, 4 beaufort

7 kt

8 kt
改变
0 ft 1.000 2.000 3.000 4.000 5.000
Cloud Cloud Cloud Cloud Cloud Cloud
BKN 2.300
Cloud Cloud Cloud Cloud Cloud Cloud Cloud Cloud
OVC 2.600
METAR EDSB 271420Z 05011KT 9999 BKN023 OVC026 02/M03 Q1022

METAR Pattonville Airport - EDTQ

Pattonville Airport是,德国中的小机场。 该机场有一条跑道: 10/28. 该领域的国际民航组织标志是EDTQ.

这份报告是针对2023年1月27日 15:20, 当地时间在Karlsruhe Baden-Baden Airport进行的。

机场观察

风向为050°,速度为11 kt。

可见度为10 km 或者更多。

有碎云在2.300 ft的高度 和 乌云密布在2.600 ft的高度。 破损或更高的上限为2.300 ft。

温度为2 °C,阵风为-4 °C。 露点为-3 °C,相对湿度为70%。 海平面上的气压为1022 hPa (QNH)。

白天

今天,太阳从07:59升起,在17:11降落。 这适用于Pattonville Airport,世界夏令时可能有所不同。 当地时间与世界标准时间之间的时差为+1 小时。 当前,没有夏令时有效。

公司介绍

我们没有关于这个机场的公司信息。

体会

到Vliegles.nl去找飞行课程,跳伞和其他飞行体验。 浏览页面,了解Pattonville Airport附近所有可用的活动。 你也可以使用搜索功能来寻找你所在地附近的特定飞行课程、跳伞或其他飞行体验。

跑道

Id 标题 侧风 逆风 侧风 %
10/28 100°-280° 8 kt 7 kt 77 %

逆风成分最大的方向会被突出显示,并用于横风计算。 这并不一定意味着这个方向在使用。

乌云

2.300 ft BKN 碎云
2.600 ft OVC 乌云密布

温度 & 天气

温度 2 °C
露点 -3 °C
相对湿度 70%
风寒 -4 °C
Kp-index 2 (0-9)

白天

日出
08:04
中午
12:40
日落
17:16 (1:40)

小工具

你想在你的网站上有一个关于Pattonville Airport的当前航空天气(METAR)的小部件吗?

显示HTML代码

我们和第三方通过cookies跟踪您在我们网站上的互联网行为。如果你继续,我们认为你同意我们的饼干政策